Zephyr, Texas
Current Conditions -  °F | °C
As of 7:55 AM on Friday 31 Oct 2014 (Local Time) from KBWD Reporting Station
Clear Clear  
Wind Chill: 52°   Ceiling: Unl
Heat Index: 52°   Visibility: 10mi
Dew Point: 39°   Wind: 3mph
Humidity: 62%   Direction: 350°N
Pressure: 30.31"   Gusts: NA
Location:  31.68°N, 98.79°W
Report Text: KBWD 311255Z AUTO 35003KT 10SM CLR 11/04 A3031 RMK AO2
Loading
Personal Weather Stations






























Interactive Weather Map New forecast layout! Learn more

10-Day Weather Forecast

Advertisements
Track Severe Weather on mobile